Time;durP1;ratioP1;P1;durP2;ratioP2;P2;SDS_P1;SDS_P2;PMS_P1;PMS_P2;Temp;Humidity;BMP_temperature;BMP_pressure;BME280_temperature;BME280_humidity;BME280_pressure;Samples;Min_cycle;Max_cycle;Signal;HPM_P1;HPM_P2
2023/08/28 00:02:00;;;;;;;9.50;8.48;;;;;;;11.29;nan;101175.97;5033090;28;20403;-73
2023/08/28 00:04:25;;;;;;;10.07;7.65;;;;;;;11.28;nan;101174.22;5037446;28;20026;-73
2023/08/28 00:06:51;;;;;;;8.65;7.45;;;;;;;11.27;nan;101175.97;5034925;28;20029;-73
2023/08/28 00:09:17;;;;;;;8.68;7.28;;;;;;;11.24;nan;101176.03;5034034;28;20033;-73
2023/08/28 00:11:43;;;;;;;8.88;7.63;;;;;;;11.23;nan;101185.63;5036840;28;20075;-73
2023/08/28 00:14:08;;;;;;;9.23;7.63;;;;;;;11.18;nan;101177.03;5040419;28;20108;-73
2023/08/28 00:16:33;;;;;;;10.30;7.47;;;;;;;11.16;nan;101170.13;5041271;28;20188;-73
2023/08/28 00:18:59;;;;;;;9.70;7.53;;;;;;;11.12;nan;101155.44;5036038;28;20029;-73
2023/08/28 00:21:24;;;;;;;8.80;7.90;;;;;;;11.17;nan;101171.84;5040553;28;20052;-73
2023/08/28 00:23:49;;;;;;;12.65;7.82;;;;;;;11.06;nan;101158.16;5028339;28;20116;-73
2023/08/28 00:26:15;;;;;;;8.80;7.95;;;;;;;11.09;nan;101161.56;5031412;28;20492;-73
2023/08/28 00:28:40;;;;;;;8.57;7.78;;;;;;;11.06;nan;101152.94;5032679;28;20046;-73
2023/08/28 00:31:05;;;;;;;8.60;7.70;;;;;;;11.04;nan;101155.56;5043086;28;20036;-73
2023/08/28 00:33:30;;;;;;;11.20;7.40;;;;;;;10.99;nan;101166.13;5041513;28;20025;-73
2023/08/28 00:35:56;;;;;;;9.02;7.78;;;;;;;10.96;nan;101163.56;5040001;28;20029;-73
2023/08/28 00:38:21;;;;;;;9.65;7.70;;;;;;;10.90;nan;101142.81;5041331;28;20116;-73
2023/08/28 00:40:46;;;;;;;9.40;7.78;;;;;;;10.99;nan;101158.28;5041956;28;20114;-73
2023/08/28 00:43:11;;;;;;;9.77;7.78;;;;;;;10.98;nan;101153.94;5039611;28;20069;-73
2023/08/28 00:45:40;;;;;;;8.15;7.35;;;;;;;10.98;nan;101151.31;5034334;28;20029;-73
2023/08/28 00:48:06;;;;;;;11.23;7.53;;;;;;;10.97;nan;101159.19;5042855;28;20040;-73
2023/08/28 00:50:31;;;;;;;8.68;7.88;;;;;;;10.93;nan;101150.56;5045109;28;20028;-73
2023/08/28 00:52:57;;;;;;;10.55;9.23;;;;;;;10.93;nan;101158.41;5046200;28;20025;-73
2023/08/28 00:55:23;;;;;;;13.95;7.93;;;;;;;10.89;nan;101161.97;5043205;28;20033;-73
2023/08/28 00:57:49;;;;;;;11.27;8.48;;;;;;;10.86;nan;101164.63;5039252;28;20040;-73
2023/08/28 01:00:15;;;;;;;10.07;8.80;;;;;;;10.80;nan;101159.53;5040529;28;20018;-73
2023/08/28 01:02:40;;;;;;;10.80;8.57;;;;;;;10.77;nan;101160.44;5043318;28;20494;-73
2023/08/28 01:05:06;;;;;;;9.23;8.23;;;;;;;10.74;nan;101157.91;5035393;28;20053;-73
2023/08/28 01:08:02;;;;;;;9.77;8.77;;;;;;;10.76;nan;101155.28;5039415;28;20124;-73
2023/08/28 01:10:36;;;;;;;10.35;8.57;;;;;;;10.68;nan;101160.63;5033037;28;20045;-73
2023/08/28 01:13:22;;;;;;;12.57;9.07;;;;;;;10.64;nan;101164.19;5035784;28;20061;-73
2023/08/28 01:15:49;;;;;;;10.93;8.88;;;;;;;10.59;nan;101167.75;5036493;28;20523;-73
2023/08/28 01:18:16;;;;;;;12.30;8.77;;;;;;;10.56;nan;101158.22;5039191;28;20110;-73
2023/08/28 01:20:42;;;;;;;11.40;9.27;;;;;;;10.61;nan;101171.19;5032767;28;20104;-73
2023/08/28 01:23:12;;;;;;;13.90;9.25;;;;;;;10.57;nan;101159.97;5043729;28;20499;-73
2023/08/28 01:25:39;;;;;;;11.43;8.90;;;;;;;10.59;nan;101146.88;5039573;28;20025;-73
2023/08/28 01:28:04;;;;;;;10.68;9.05;;;;;;;10.58;nan;101150.41;5039151;28;20032;-73
2023/08/28 01:30:30;;;;;;;11.88;9.50;;;;;;;10.53;nan;101142.66;5032451;28;20038;-73
2023/08/28 01:32:55;;;;;;;10.52;9.35;;;;;;;10.47;nan;101146.25;5036767;28;20514;-73
2023/08/28 01:35:29;;;;;;;10.57;9.52;;;;;;;10.47;nan;101145.38;5042314;28;20028;-73
2023/08/28 01:37:58;;;;;;;12.75;9.52;;;;;;;10.46;nan;101143.66;5041547;28;20079;-73
2023/08/28 01:40:32;;;;;;;11.32;9.68;;;;;;;10.46;nan;101141.94;5034228;28;20481;-73
2023/08/28 01:43:01;;;;;;;12.77;9.95;;;;;;;10.44;nan;101138.47;5041143;28;20033;-73
2023/08/28 01:45:27;;;;;;;11.98;10.00;;;;;;;10.44;nan;101138.47;5042329;28;20041;-73
2023/08/28 01:47:53;;;;;;;11.80;9.48;;;;;;;10.43;nan;101134.16;5042416;28;20040;-73
2023/08/28 01:50:18;;;;;;;11.77;9.73;;;;;;;10.44;nan;101121.97;5033675;28;20040;-73
2023/08/28 01:52:43;;;;;;;13.57;10.45;;;;;;;10.40;nan;101122.91;5042544;28;20077;-73
2023/08/28 01:55:09;;;;;;;12.20;10.63;;;;;;;10.41;nan;101132.47;5036621;28;20022;-73
2023/08/28 01:57:34;;;;;;;13.07;10.65;;;;;;;10.30;nan;101112.66;5039423;28;20423;-73
2023/08/28 01:59:59;;;;;;;14.82;10.68;;;;;;;10.40;nan;101129.00;5038314;28;20124;-73
2023/08/28 02:02:24;;;;;;;13.57;10.60;;;;;;;10.40;nan;101125.50;5048074;28;20040;-73
2023/08/28 02:04:50;;;;;;;14.40;10.63;;;;;;;10.37;nan;101120.38;5033334;28;20021;-73
2023/08/28 02:07:15;;;;;;;17.60;10.95;;;;;;;10.37;nan;101120.38;5032077;28;20034;-73
2023/08/28 02:09:40;;;;;;;11.95;10.75;;;;;;;10.32;nan;101118.69;5042707;28;20052;-73
2023/08/28 02:12:06;;;;;;;14.65;10.55;;;;;;;10.31;nan;101106.56;5040398;28;20025;-73
2023/08/28 02:14:32;;;;;;;13.45;11.43;;;;;;;10.31;nan;101111.78;5032207;28;20042;-74
2023/08/28 02:16:57;;;;;;;14.45;10.80;;;;;;;10.28;nan;101113.56;5036958;28;20120;-73
2023/08/28 02:19:22;;;;;;;13.98;11.32;;;;;;;10.24;nan;101115.34;5044561;28;20056;-73
2023/08/28 02:21:48;;;;;;;13.73;10.90;;;;;;;10.21;nan;101115.41;5036379;28;20387;-73
2023/08/28 02:24:13;;;;;;;15.63;11.40;;;;;;;10.20;nan;101118.00;5039418;28;20154;-73
2023/08/28 02:26:38;;;;;;;12.93;10.95;;;;;;;10.19;nan;101117.16;5036094;28;20370;-73
2023/08/28 02:29:03;;;;;;;13.90;11.02;;;;;;;10.17;nan;101129.38;5046351;28;20028;-73
2023/08/28 02:31:29;;;;;;;14.30;11.75;;;;;;;10.19;nan;101118.91;5038374;28;20075;-73
2023/08/28 02:33:54;;;;;;;14.05;11.57;;;;;;;10.20;nan;101123.22;5035416;28;20026;-74
2023/08/28 02:36:19;;;;;;;13.05;11.32;;;;;;;10.18;nan;101114.59;5042403;28;20061;-73
2023/08/28 02:38:45;;;;;;;14.68;12.25;;;;;;;10.20;nan;101118.00;5042035;28;20033;-73
2023/08/28 02:41:10;;;;;;;18.98;11.50;;;;;;;10.18;nan;101114.59;5043061;28;20025;-73
2023/08/28 02:43:38;;;;;;;15.77;11.73;;;;;;;10.18;nan;101117.19;5036479;28;20103;-73
2023/08/28 02:46:03;;;;;;;16.45;12.40;;;;;;;10.09;nan;101121.66;5045232;28;20044;-73
2023/08/28 02:48:29;;;;;;;14.95;11.82;;;;;;;10.11;nan;101123.41;5038561;28;20022;-73
2023/08/28 02:50:55;;;;;;;14.00;12.05;;;;;;;10.12;nan;101118.16;5048425;28;20083;-73
2023/08/28 02:53:20;;;;;;;14.63;11.73;;;;;;;10.07;nan;101128.66;5042563;28;20034;-73
2023/08/28 02:56:09;;;;;;;16.73;11.98;;;;;;;10.08;nan;101130.38;5038509;28;20112;-73
2023/08/28 02:58:34;;;;;;;17.73;11.90;;;;;;;10.07;nan;101125.19;5033252;28;20025;-73
2023/08/28 03:01:00;;;;;;;14.50;11.52;;;;;;;10.07;nan;101131.28;5038817;28;20053;-73
2023/08/28 03:03:25;;;;;;;17.90;12.15;;;;;;;10.02;nan;101130.47;5040588;28;20025;-73
2023/08/28 03:05:50;;;;;;;14.05;12.30;;;;;;;10.01;nan;101128.78;5031752;28;20045;-73
2023/08/28 03:08:17;;;;;;;17.38;12.40;;;;;;;10.03;nan;101136.53;5043992;28;20020;-73
2023/08/28 03:10:42;;;;;;;13.85;11.98;;;;;;;9.98;nan;101144.44;5039314;28;20033;-73
2023/08/28 03:13:08;;;;;;;17.67;12.45;;;;;;;10.02;nan;101147.84;5040090;28;20460;-73
2023/08/28 03:15:33;;;;;;;15.25;11.88;;;;;;;10.02;nan;101145.25;5035244;28;20037;-73
2023/08/28 03:17:59;;;;;;;17.42;12.85;;;;;;;10.01;nan;101141.78;5039249;28;20029;-73
2023/08/28 03:20:24;;;;;;;17.63;13.63;;;;;;;9.98;nan;101144.44;5040496;28;20037;-73
2023/08/28 03:22:49;;;;;;;15.02;13.13;;;;;;;10.01;nan;101143.53;5043285;28;20059;-73
2023/08/28 03:25:14;;;;;;;18.90;13.10;;;;;;;10.04;nan;101146.09;5040030;28;20025;-73
2023/08/28 03:27:40;;;;;;;15.77;13.95;;;;;;;9.99;nan;101135.72;5033199;28;20160;-73
2023/08/28 03:30:06;;;;;;;17.80;14.60;;;;;;;10.09;nan;101152.94;5037377;28;20033;-73
2023/08/28 03:32:32;;;;;;;15.18;13.57;;;;;;;10.15;nan;101141.56;5033679;28;20115;-73
2023/08/28 03:34:57;;;;;;;19.80;14.63;;;;;;;10.16;nan;101129.38;5038874;28;20708;-73
2023/08/28 03:37:23;;;;;;;15.35;13.70;;;;;;;10.30;nan;101145.69;5040996;28;20033;-73
2023/08/28 03:39:48;;;;;;;22.08;14.65;;;;;;;10.36;nan;101150.78;5040982;28;20030;-73
2023/08/28 03:42:13;;;;;;;20.08;14.77;;;;;;;10.43;nan;101161.94;5034128;28;20056;-73
2023/08/28 03:44:40;;;;;;;18.25;15.02;;;;;;;10.47;nan;101161.88;5032216;28;20510;-73
2023/08/28 03:47:05;;;;;;;20.83;15.13;;;;;;;10.51;nan;101163.53;5032054;28;20121;-73
2023/08/28 03:49:30;;;;;;;19.85;15.43;;;;;;;10.55;nan;101167.81;5039651;28;20034;-74
2023/08/28 03:51:59;;;;;;;22.08;15.25;;;;;;;10.59;nan;101172.97;5040282;28;20030;-73
2023/08/28 03:54:25;;;;;;;20.38;15.27;;;;;;;10.62;nan;101165.09;5045067;28;20033;-74
2023/08/28 03:56:50;;;;;;;20.27;15.35;;;;;;;10.61;nan;101171.19;5038701;28;20030;-74
2023/08/28 03:59:15;;;;;;;19.60;15.70;;;;;;;10.68;nan;101180.63;5035199;28;20465;-73
2023/08/28 04:01:41;;;;;;;23.45;16.23;;;;;;;10.64;nan;101173.75;5044156;28;20112;-73
2023/08/28 04:04:06;;;;;;;17.23;15.43;;;;;;;10.73;nan;101189.22;5042061;28;20387;-73
2023/08/28 04:06:32;;;;;;;19.35;16.58;;;;;;;10.78;nan;101193.44;5031088;28;20035;-73
2023/08/28 04:08:57;;;;;;;19.60;15.82;;;;;;;10.85;nan;101196.81;5047384;28;20476;-73
2023/08/28 04:11:22;;;;;;;19.63;16.75;;;;;;;10.88;nan;101191.53;5042810;28;20056;-73
2023/08/28 04:13:48;;;;;;;19.55;16.35;;;;;;;10.92;nan;101194.94;5030158;28;20025;-73
2023/08/28 04:16:13;;;;;;;20.35;16.33;;;;;;;10.95;nan;101192.28;5042894;28;20122;-73
2023/08/28 04:18:39;;;;;;;36.95;17.58;;;;;;;10.97;nan;101195.72;5039739;28;20041;-73
2023/08/28 04:21:04;;;;;;;22.63;16.08;;;;;;;11.02;nan;101191.28;5037059;28;20028;-73
2023/08/28 04:23:29;;;;;;;20.05;17.08;;;;;;;10.99;nan;101186.97;5047840;28;20064;-73
2023/08/28 04:25:55;;;;;;;22.17;17.00;;;;;;;11.07;nan;101188.56;5033641;28;20056;-73
2023/08/28 04:28:20;;;;;;;22.02;16.65;;;;;;;11.11;nan;101196.28;5028750;28;20029;-73
2023/08/28 04:30:45;;;;;;;22.30;17.35;;;;;;;11.14;nan;101203.22;5039580;28;20103;-73
2023/08/28 04:33:11;;;;;;;19.88;16.33;;;;;;;11.15;nan;101189.25;5044969;28;20534;-73
2023/08/28 04:35:36;;;;;;;19.10;16.45;;;;;;;11.11;nan;101185.84;5036093;28;20117;-73
2023/08/28 04:38:01;;;;;;;22.42;16.83;;;;;;;11.18;nan;101197.91;5035552;28;20064;-73
2023/08/28 04:40:27;;;;;;;20.40;17.67;;;;;;;11.19;nan;101197.03;5037167;28;20025;-73
2023/08/28 04:42:54;;;;;;;20.38;16.63;;;;;;;11.24;nan;101194.31;5040989;28;20056;-74
2023/08/28 04:45:19;;;;;;;18.95;16.20;;;;;;;11.23;nan;101187.38;5042969;28;20032;-73
2023/08/28 04:47:45;;;;;;;22.88;16.88;;;;;;;11.28;nan;101193.38;5034970;28;20388;-73
2023/08/28 04:50:10;;;;;;;19.40;16.63;;;;;;;11.29;nan;101187.25;5042507;28;20447;-73
2023/08/28 04:52:36;;;;;;;22.73;17.27;;;;;;;11.34;nan;101179.31;5042551;28;20032;-73
2023/08/28 04:55:01;;;;;;;21.58;16.92;;;;;;;11.35;nan;101179.28;5042191;28;20029;-73
2023/08/28 04:57:26;;;;;;;20.23;16.42;;;;;;;11.36;nan;101174.94;5038323;28;20033;-74
2023/08/28 04:59:52;;;;;;;18.90;15.57;;;;;;;11.42;nan;101178.28;5038219;28;20383;-73
2023/08/28 05:02:17;;;;;;;21.48;16.33;;;;;;;11.46;nan;101168.63;5041424;28;20116;-73
2023/08/28 05:04:42;;;;;;;22.25;16.45;;;;;;;11.46;nan;101172.06;5042368;28;20409;-73
2023/08/28 05:07:08;;;;;;;22.55;16.33;;;;;;;11.54;nan;101165.81;5034447;28;20044;-73
2023/08/28 05:09:33;;;;;;;20.33;15.85;;;;;;;11.53;nan;101153.66;5041703;28;20029;-73
2023/08/28 05:11:59;;;;;;;21.65;15.75;;;;;;;11.62;nan;101161.31;5036057;28;20528;-73
2023/08/28 05:14:24;;;;;;;22.38;15.80;;;;;;;11.67;nan;101162.03;5033793;28;20056;-73
2023/08/28 05:16:49;;;;;;;20.65;15.43;;;;;;;11.71;nan;101164.56;5040223;28;20041;-73
2023/08/28 05:19:15;;;;;;;19.35;15.43;;;;;;;11.76;nan;101156.59;5038583;28;20049;-73
2023/08/28 05:21:40;;;;;;;19.58;16.30;;;;;;;11.85;nan;101174.72;5036695;28;20075;-74
2023/08/28 05:24:06;;;;;;;19.77;15.48;;;;;;;11.94;nan;101165.81;5040134;28;20029;-73
2023/08/28 05:26:31;;;;;;;18.90;15.95;;;;;;;12.02;nan;101160.41;5034185;28;20036;-74
2023/08/28 05:28:57;;;;;;;18.48;15.02;;;;;;;12.08;nan;101168.94;5033823;28;20029;-74
2023/08/28 05:31:22;;;;;;;19.23;15.55;;;;;;;12.22;nan;101170.34;5039367;28;20040;-74
2023/08/28 05:33:47;;;;;;;19.23;15.25;;;;;;;12.30;nan;101168.41;5036980;28;20033;-74
2023/08/28 05:36:13;;;;;;;17.63;14.02;;;;;;;12.33;nan;101165.72;5037299;28;20033;-74
2023/08/28 05:38:38;;;;;;;19.42;13.75;;;;;;;12.32;nan;101159.63;5042896;28;20033;-74
2023/08/28 05:41:03;;;;;;;18.17;14.77;;;;;;;12.28;nan;101154.53;5038009;28;20156;-74
2023/08/28 05:43:28;;;;;;;16.17;13.98;;;;;;;12.25;nan;101149.38;5045721;28;20384;-74
2023/08/28 05:45:54;;;;;;;18.38;13.50;;;;;;;12.21;nan;101152.97;5034232;28;20028;-73
2023/08/28 05:48:19;;;;;;;19.95;13.73;;;;;;;12.19;nan;101152.97;5042562;28;20127;-74
2023/08/28 05:50:48;;;;;;;16.63;13.88;;;;;;;12.12;nan;101157.50;5038399;28;20059;-74
2023/08/28 05:53:13;;;;;;;16.02;13.68;;;;;;;12.09;nan;101170.66;5043645;28;20030;-73
2023/08/28 05:55:39;;;;;;;16.42;13.45;;;;;;;12.05;nan;101176.00;5041765;28;20132;-74
2023/08/28 05:58:04;;;;;;;17.25;14.75;;;;;;;12.05;nan;101178.63;5040725;28;20503;-73
2023/08/28 06:00:29;;;;;;;18.95;15.30;;;;;;;12.03;nan;101178.63;5037665;28;20099;-73
2023/08/28 06:02:55;;;;;;;20.75;15.50;;;;;;;12.01;nan;101167.38;5033197;28;20440;-73
2023/08/28 06:05:20;;;;;;;21.30;17.23;;;;;;;12.05;nan;101161.19;5036597;28;20083;-74
2023/08/28 06:07:45;;;;;;;20.10;16.88;;;;;;;12.02;nan;101163.84;5041388;28;20030;-74
2023/08/28 06:10:17;;;;;;;20.30;15.77;;;;;;;12.11;nan;101173.25;5037364;28;20029;-74
2023/08/28 06:12:43;;;;;;;18.95;16.45;;;;;;;12.11;nan;101161.03;5033978;28;20031;-74
2023/08/28 06:15:09;;;;;;;20.08;17.13;;;;;;;12.19;nan;101164.28;5044464;28;20041;-73
2023/08/28 06:17:34;;;;;;;23.17;18.38;;;;;;;12.26;nan;101161.53;5042466;28;20037;-74
2023/08/28 06:19:59;;;;;;;22.00;17.13;;;;;;;12.31;nan;101157.06;5039063;28;20033;-73
2023/08/28 06:22:25;;;;;;;20.00;16.35;;;;;;;12.35;nan;101162.16;5043689;28;20104;-74
2023/08/28 06:24:52;;;;;;;21.38;17.30;;;;;;;12.40;nan;101162.06;5046113;28;20023;-73
2023/08/28 06:27:18;;;;;;;19.60;17.48;;;;;;;12.44;nan;101174.16;5039391;28;20022;-74
2023/08/28 06:29:43;;;;;;;22.75;18.17;;;;;;;12.49;nan;101167.06;5043827;28;20024;-73
2023/08/28 06:32:09;;;;;;;21.88;18.02;;;;;;;12.56;nan;101173.84;5042862;28;20025;-73
2023/08/28 06:34:34;;;;;;;21.83;18.52;;;;;;;12.63;nan;101175.38;5039303;28;20451;-74
2023/08/28 06:36:59;;;;;;;21.55;16.83;;;;;;;12.68;nan;101170.00;5038119;28;20033;-74
2023/08/28 06:39:24;;;;;;;23.55;19.02;;;;;;;12.80;nan;101169.69;5035383;28;20079;-73
2023/08/28 06:41:50;;;;;;;23.50;18.15;;;;;;;12.91;nan;101174.63;5034650;28;20457;-74
2023/08/28 06:44:15;;;;;;;24.30;20.13;;;;;;;13.08;nan;101168.94;5042498;28;20033;-74
2023/08/28 06:46:40;;;;;;;24.33;19.80;;;;;;;13.27;nan;101172.75;5042930;28;20092;-74
2023/08/28 06:49:06;;;;;;;24.65;19.30;;;;;;;13.46;nan;101174.81;5043494;28;20476;-73
2023/08/28 06:51:31;;;;;;;21.88;17.80;;;;;;;13.70;nan;101178.44;5044675;28;20120;-73
2023/08/28 06:53:57;;;;;;;20.70;17.70;;;;;;;13.88;nan;101183.13;5051005;28;20029;-73
2023/08/28 06:56:22;;;;;;;17.75;15.88;;;;;;;13.99;nan;101181.00;5034694;28;20029;-73
2023/08/28 06:58:48;;;;;;;17.80;15.05;;;;;;;14.00;nan;101181.88;5028459;28;20368;-73
2023/08/28 07:01:13;;;;;;;19.45;14.65;;;;;;;14.02;nan;101193.16;5039264;28;20435;-74
2023/08/28 07:03:38;;;;;;;16.85;13.88;;;;;;;13.93;nan;101190.81;5041411;28;20025;-73
2023/08/28 07:06:04;;;;;;;15.90;13.57;;;;;;;13.85;nan;101191.06;5037771;28;20062;-73
2023/08/28 07:08:29;;;;;;;17.13;13.60;;;;;;;13.82;nan;101209.50;5034489;28;20044;-73
2023/08/28 07:10:54;;;;;;;14.48;12.98;;;;;;;13.77;nan;101200.94;5043436;28;20025;-73
2023/08/28 07:13:20;;;;;;;19.65;13.50;;;;;;;13.61;nan;101190.09;5033569;28;20112;-73
2023/08/28 07:15:45;;;;;;;15.75;14.15;;;;;;;13.66;nan;101208.25;5030147;28;20406;-73
2023/08/28 07:18:10;;;;;;;15.13;13.53;;;;;;;13.60;nan;101211.91;5040171;28;20068;-73
2023/08/28 07:20:36;;;;;;;15.55;13.82;;;;;;;13.60;nan;101217.16;5036721;28;20346;-72
2023/08/28 07:23:01;;;;;;;15.85;14.18;;;;;;;13.69;nan;101214.28;5041020;28;20388;-73
2023/08/28 07:25:27;;;;;;;16.48;14.25;;;;;;;13.81;nan;101211.28;5044893;28;20044;-81
2023/08/28 07:27:53;;;;;;;17.30;14.80;;;;;;;13.98;nan;101212.50;5038667;28;20033;-80
2023/08/28 07:30:19;;;;;;;17.35;14.77;;;;;;;14.21;nan;101201.28;5034978;28;20056;-80
2023/08/28 07:32:44;;;;;;;16.77;14.98;;;;;;;14.42;nan;101187.47;5043991;28;20032;-80
2023/08/28 07:35:09;;;;;;;16.25;14.65;;;;;;;14.74;nan;101188.13;5045178;28;20032;-79
2023/08/28 07:37:36;;;;;;;14.80;13.05;;;;;;;14.88;nan;101174.56;5042994;28;20041;-80
2023/08/28 07:40:03;;;;;;;16.48;13.73;;;;;;;15.28;nan;101189.69;5038670;28;20033;-78
2023/08/28 07:42:28;;;;;;;13.27;11.45;;;;;;;15.53;nan;101194.00;5042973;28;20033;-79
2023/08/28 07:44:53;;;;;;;12.48;10.90;;;;;;;15.66;nan;101172.50;5038882;28;20473;-78
2023/08/28 07:47:19;;;;;;;13.25;11.82;;;;;;;15.94;nan;101183.66;5036141;28;20400;-78
2023/08/28 07:49:44;;;;;;;14.15;10.80;;;;;;;16.18;nan;101190.53;5041689;28;20057;-78
2023/08/28 07:52:10;;;;;;;12.25;10.68;;;;;;;16.40;nan;101182.63;5044047;28;20025;-78
2023/08/28 07:54:36;;;;;;;13.18;9.95;;;;;;;16.62;nan;101191.31;5045853;28;20037;-78
2023/08/28 07:57:03;;;;;;;10.75;9.70;;;;;;;16.75;nan;101196.09;5039503;28;20014;-78
2023/08/28 07:59:29;;;;;;;11.98;9.73;;;;;;;16.79;nan;101187.13;5040464;28;20032;-78
2023/08/28 08:01:55;;;;;;;9.25;8.35;;;;;;;16.92;nan;101193.56;5043581;28;20025;-78
2023/08/28 08:04:20;;;;;;;10.60;9.50;;;;;;;17.00;nan;101190.56;5043262;28;20396;-78
2023/08/28 08:06:45;;;;;;;8.68;7.70;;;;;;;17.07;nan;101189.41;5042317;28;20137;-78
2023/08/28 08:09:11;;;;;;;8.95;8.00;;;;;;;17.15;nan;101191.69;5034972;28;20028;-79
2023/08/28 08:11:36;;;;;;;10.05;7.93;;;;;;;17.24;nan;101184.22;5046821;28;20029;-79
2023/08/28 08:14:01;;;;;;;8.90;8.00;;;;;;;17.33;nan;101190.84;5033780;28;20045;-78
2023/08/28 08:16:27;;;;;;;9.15;8.25;;;;;;;17.43;nan;101194.78;5039428;28;20491;-79
2023/08/28 08:18:52;;;;;;;10.55;8.48;;;;;;;17.53;nan;101193.41;5040925;28;20033;-78
2023/08/28 08:21:17;;;;;;;9.13;8.23;;;;;;;17.59;nan;101189.59;5038328;28;20490;-78
2023/08/28 08:23:42;;;;;;;10.80;8.95;;;;;;;17.57;nan;101188.00;5044394;28;20043;-79
2023/08/28 08:26:08;;;;;;;8.95;8.02;;;;;;;17.49;nan;101189.22;5039965;28;20105;-73
2023/08/28 08:28:34;;;;;;;9.85;8.57;;;;;;;17.41;nan;101206.31;5041703;28;20072;-73
2023/08/28 08:30:59;;;;;;;9.73;8.73;;;;;;;17.34;nan;101197.81;5034122;28;20025;-74
2023/08/28 08:33:24;;;;;;;9.32;8.10;;;;;;;17.30;nan;101191.84;5033409;28;20053;-73
2023/08/28 08:35:50;;;;;;;10.27;8.77;;;;;;;17.33;nan;101201.41;5042388;28;20503;-74
2023/08/28 08:38:15;;;;;;;9.55;8.60;;;;;;;17.37;nan;101205.59;5036754;28;20464;-74
2023/08/28 08:40:43;;;;;;;10.52;8.60;;;;;;;17.30;nan;101217.34;5035573;28;20079;-74
2023/08/28 08:43:08;;;;;;;9.48;8.20;;;;;;;17.30;nan;101215.56;5032028;28;20087;-74
2023/08/28 08:45:37;;;;;;;9.38;7.82;;;;;;;17.46;nan;101212.19;5037198;28;20469;-73
2023/08/28 08:48:05;;;;;;;11.23;7.57;;;;;;;17.53;nan;101213.66;5042589;28;20021;-77
2023/08/28 08:50:34;;;;;;;8.57;6.70;;;;;;;17.57;nan;101212.56;5041683;28;20025;-74
2023/08/28 08:53:06;;;;;;;7.93;7.10;;;;;;;17.67;nan;101213.84;5044012;28;20039;-73
2023/08/28 08:55:39;;;;;;;8.45;6.60;;;;;;;17.71;nan;101215.41;5039357;28;20067;-74
2023/08/28 08:58:13;;;;;;;12.10;6.68;;;;;;;17.81;nan;101210.59;5034643;28;20112;-74
2023/08/28 09:00:43;;;;;;;8.88;7.07;;;;;;;17.85;nan;101200.72;5036356;28;20365;-74
2023/08/28 09:03:09;;;;;;;7.32;6.65;;;;;;;18.08;nan;101212.81;5033984;28;20068;-74
2023/08/28 09:05:36;;;;;;;7.72;7.03;;;;;;;18.18;nan;101211.41;5035083;28;20033;-74
2023/08/28 09:08:05;;;;;;;7.63;6.90;;;;;;;18.45;nan;101219.78;5042424;28;20447;-75
2023/08/28 09:10:30;;;;;;;6.20;5.47;;;;;;;18.55;nan;101215.72;5040333;28;20026;-75
2023/08/28 09:12:56;;;;;;;7.07;5.50;;;;;;;18.66;nan;101208.09;5037016;28;20480;-74
2023/08/28 09:15:21;;;;;;;5.47;4.78;;;;;;;18.88;nan;101199.97;5038907;28;20146;-74
2023/08/28 09:17:47;;;;;;;6.90;4.85;;;;;;;18.93;nan;101197.94;5038474;28;20098;-73
2023/08/28 09:20:16;;;;;;;4.90;3.63;;;;;;;18.95;nan;101200.50;5034732;28;20413;-73
2023/08/28 09:22:46;;;;;;;6.75;3.55;;;;;;;19.05;nan;101195.56;5041574;28;20029;-73
2023/08/28 09:25:12;;;;;;;3.40;3.10;;;;;;;18.98;nan;101195.03;5035833;28;20028;-72
2023/08/28 09:27:42;;;;;;;3.03;2.70;;;;;;;19.10;nan;101194.41;5042212;28;20023;-72
2023/08/28 09:30:09;;;;;;;4.55;2.80;;;;;;;19.13;nan;101201.31;5035063;28;20029;-72
2023/08/28 09:32:34;;;;;;;3.40;2.47;;;;;;;19.13;nan;101190.75;5037146;28;20036;-73
2023/08/28 09:34:59;;;;;;;2.50;2.30;;;;;;;19.13;nan;101203.97;5031020;28;20120;-72
2023/08/28 09:37:25;;;;;;;3.55;2.47;;;;;;;19.11;nan;101205.81;5030440;28;20125;-72
2023/08/28 09:39:56;;;;;;;4.55;2.95;;;;;;;19.01;nan;101205.47;5035618;28;20105;-73
2023/08/28 09:42:24;;;;;;;2.60;2.30;;;;;;;18.98;nan;101202.13;5047455;28;20028;-73
2023/08/28 09:44:50;;;;;;;2.13;1.90;;;;;;;19.17;nan;101213.44;5038121;28;20033;-72
2023/08/28 09:47:22;;;;;;;3.38;1.98;;;;;;;19.32;nan;101198.50;5042371;28;20029;-73
2023/08/28 09:49:49;;;;;;;2.73;2.23;;;;;;;19.31;nan;101200.31;5046305;28;20033;-73
2023/08/28 09:52:24;;;;;;;3.00;2.10;;;;;;;19.39;nan;101195.47;5039663;28;20302;-73
2023/08/28 09:55:00;;;;;;;4.30;3.17;;;;;;;19.44;nan;101211.06;5046253;28;20532;-73
2023/08/28 09:57:25;;;;;;;3.85;2.78;;;;;;;19.45;nan;101211.91;5040037;28;20136;-72
2023/08/28 09:59:50;;;;;;;2.67;2.33;;;;;;;19.38;nan;101209.59;5034691;28;20104;-73
2023/08/28 10:02:21;;;;;;;2.33;2.10;;;;;;;19.38;nan;101209.59;5035943;28;20353;-73
2023/08/28 10:04:51;;;;;;;2.15;1.73;;;;;;;19.33;nan;101208.16;5028159;28;20060;-72
2023/08/28 10:07:21;;;;;;;4.30;2.40;;;;;;;19.39;nan;101208.69;5041608;28;20025;-73
2023/08/28 10:09:47;;;;;;;2.35;2.15;;;;;;;19.45;nan;101201.34;5034672;28;20091;-73
2023/08/28 10:12:13;;;;;;;3.03;2.30;;;;;;;19.52;nan;101210.63;5043911;28;20100;-76
2023/08/28 10:18:11;;;;;;;2.78;2.47;;;;;;;19.33;100.00;101194.94;5092064;27;20408;-75
2023/08/28 10:20:39;;;;;;;4.05;2.88;;;;;;;19.35;100.00;101201.84;5091341;28;20050;-75
2023/08/28 10:23:06;;;;;;;3.47;3.03;;;;;;;19.38;100.00;101200.81;5083310;28;20024;-73
2023/08/28 10:25:33;;;;;;;3.10;2.78;;;;;;;19.47;100.00;101196.84;5099940;28;20104;-74
2023/08/28 10:27:58;;;;;;;3.20;2.78;;;;;;;19.79;100.00;101192.44;5096905;28;20031;-73
2023/08/28 10:30:26;;;;;;;3.25;2.40;;;;;;;20.25;100.00;101198.59;5090456;28;20016;-73
2023/08/28 10:32:54;;;;;;;5.82;3.20;;;;;;;20.58;100.00;101192.28;5095232;28;20391;-73
2023/08/28 10:35:21;;;;;;;2.72;2.50;;;;;;;20.65;100.00;101193.59;5089008;28;20024;-72
2023/08/28 10:37:47;;;;;;;4.72;2.92;;;;;;;20.83;100.00;101193.41;5091939;28;20740;-74
2023/08/28 10:40:13;;;;;;;4.15;3.08;;;;;;;20.86;100.00;101201.19;5097201;28;20027;-73
2023/08/28 10:42:41;;;;;;;4.65;2.30;;;;;;;21.01;100.00;101195.81;5097049;28;20021;-73
2023/08/28 10:45:07;;;;;;;3.22;2.63;;;;;;;21.18;100.00;101200.06;5097225;28;20488;-73
2023/08/28 10:49:10;;;;;;;3.75;3.00;;;;;;;20.99;100.00;101200.38;5098513;27;20408;-73
2023/08/28 10:51:36;;;;;;;3.83;2.90;;;;;;;20.87;100.00;101194.97;5089083;27;20043;-73
2023/08/28 10:54:07;;;;;;;4.82;2.90;;;;;;;20.73;100.00;101194.00;5086079;28;20020;-73
2023/08/28 10:56:33;;;;;;;4.50;3.15;;;;;;;20.64;100.00;101191.06;5076027;28;20090;-73
2023/08/28 10:59:17;;;;;;;4.03;2.97;;;;;;;20.78;100.00;101191.06;5077646;28;20037;-73
2023/08/28 11:02:11;;;;;;;;;;;;;;;20.95;100.00;101190.88;5070376;28;20036;-73
2023/08/28 11:04:39;;;;;;;4.22;3.30;;;;;;;20.59;100.00;101188.66;5071106;28;19917;-73
2023/08/28 11:07:07;;;;;;;5.47;3.20;;;;;;;20.54;100.00;101186.31;5081780;28;20039;-73
2023/08/28 11:09:36;;;;;;;4.68;3.92;;;;;;;20.51;100.00;101191.78;5077849;28;20445;-73
2023/08/28 11:12:01;;;;;;;4.15;3.75;;;;;;;20.44;100.00;101195.72;5079674;28;20025;-73
2023/08/28 11:14:56;;;;;;;3.28;2.80;;;;;;;20.42;100.00;101192.28;5080348;28;20056;-73
2023/08/28 11:17:23;;;;;;;4.82;3.47;;;;;;;20.60;100.00;101179.81;5076881;28;20045;-73
2023/08/28 11:19:54;;;;;;;5.95;3.78;;;;;;;20.97;100.00;101180.19;5071754;28;20359;-73
2023/08/28 11:22:42;;;;;;;3.88;3.00;;;;;;;21.41;100.00;101179.22;5075556;28;20047;-73
2023/08/28 11:25:09;;;;;;;4.20;3.80;;;;;;;21.38;97.88;101171.47;5066271;28;20917;-73
2023/08/28 11:27:53;;;;;;;3.95;3.53;;;;;;;21.58;100.00;101167.53;5071325;28;20031;-73
2023/08/28 11:30:20;;;;;;;4.13;3.00;;;;;;;21.47;100.00;101178.84;5070507;28;20414;-74
2023/08/28 11:32:49;;;;;;;2.95;2.63;;;;;;;21.05;89.64;101175.25;5079765;28;20721;-74